sensor_id;sensor_type;location;lat;lon;timestamp;temperature;humidity
13713;DHT22;6928;50.546;7.120;2023-02-01T00:02:22;6.31;87.65
13713;DHT22;6928;50.546;7.120;2023-02-01T00:04:49;6.28;87.62
13713;DHT22;6928;50.546;7.120;2023-02-01T00:07:16;6.31;87.59
13713;DHT22;6928;50.546;7.120;2023-02-01T00:09:44;6.32;87.40
13713;DHT22;6928;50.546;7.120;2023-02-01T00:12:11;6.40;87.06
13713;DHT22;6928;50.546;7.120;2023-02-01T00:14:39;6.37;87.00
13713;DHT22;6928;50.546;7.120;2023-02-01T00:17:06;6.31;87.00
13713;DHT22;6928;50.546;7.120;2023-02-01T00:19:34;6.27;87.17
13713;DHT22;6928;50.546;7.120;2023-02-01T00:22:01;6.38;86.90
13713;DHT22;6928;50.546;7.120;2023-02-01T00:24:28;6.46;86.37
13713;DHT22;6928;50.546;7.120;2023-02-01T00:26:56;6.45;86.06
13713;DHT22;6928;50.546;7.120;2023-02-01T00:29:23;6.45;86.08
13713;DHT22;6928;50.546;7.120;2023-02-01T00:31:51;6.56;85.60
13713;DHT22;6928;50.546;7.120;2023-02-01T00:34:18;6.53;85.75
13713;DHT22;6928;50.546;7.120;2023-02-01T00:36:45;6.49;85.46
13713;DHT22;6928;50.546;7.120;2023-02-01T00:39:12;6.48;85.59
13713;DHT22;6928;50.546;7.120;2023-02-01T00:41:40;6.51;85.32
13713;DHT22;6928;50.546;7.120;2023-02-01T00:44:08;6.52;85.30
13713;DHT22;6928;50.546;7.120;2023-02-01T00:46:35;6.49;85.41
13713;DHT22;6928;50.546;7.120;2023-02-01T00:49:02;6.51;85.46
13713;DHT22;6928;50.546;7.120;2023-02-01T00:51:30;6.51;85.36
13713;DHT22;6928;50.546;7.120;2023-02-01T00:53:57;6.49;85.69
13713;DHT22;6928;50.546;7.120;2023-02-01T00:56:24;6.49;85.40
13713;DHT22;6928;50.546;7.120;2023-02-01T00:58:53;6.51;85.43
13713;DHT22;6928;50.546;7.120;2023-02-01T01:01:23;6.52;85.31
13713;DHT22;6928;50.546;7.120;2023-02-01T01:03:55;6.49;85.13
13713;DHT22;6928;50.546;7.120;2023-02-01T01:06:24;6.51;85.08
13713;DHT22;6928;50.546;7.120;2023-02-01T01:08:53;6.52;84.70
13713;DHT22;6928;50.546;7.120;2023-02-01T01:11:23;6.48;84.87
13713;DHT22;6928;50.546;7.120;2023-02-01T01:13:53;6.51;84.88
13713;DHT22;6928;50.546;7.120;2023-02-01T01:16:23;6.52;84.68
13713;DHT22;6928;50.546;7.120;2023-02-01T01:18:51;6.53;84.58
13713;DHT22;6928;50.546;7.120;2023-02-01T01:21:18;6.49;84.51
13713;DHT22;6928;50.546;7.120;2023-02-01T01:23:46;6.49;84.54
13713;DHT22;6928;50.546;7.120;2023-02-01T01:26:16;6.48;84.48
13713;DHT22;6928;50.546;7.120;2023-02-01T01:28:43;6.48;84.38
13713;DHT22;6928;50.546;7.120;2023-02-01T01:31:12;6.49;84.38
13713;DHT22;6928;50.546;7.120;2023-02-01T01:33:40;6.46;84.58
13713;DHT22;6928;50.546;7.120;2023-02-01T01:36:10;6.45;84.44
13713;DHT22;6928;50.546;7.120;2023-02-01T01:38:38;6.45;84.15
13713;DHT22;6928;50.546;7.120;2023-02-01T01:41:05;6.48;83.96
13713;DHT22;6928;50.546;7.120;2023-02-01T01:43:55;6.41;84.20
13713;DHT22;6928;50.546;7.120;2023-02-01T01:46:24;6.45;83.99
13713;DHT22;6928;50.546;7.120;2023-02-01T01:49:00;6.41;84.16
13713;DHT22;6928;50.546;7.120;2023-02-01T01:51:29;6.37;84.09
13713;DHT22;6928;50.546;7.120;2023-02-01T01:54:02;6.35;84.18
13713;DHT22;6928;50.546;7.120;2023-02-01T01:56:31;6.37;84.48
13713;DHT22;6928;50.546;7.120;2023-02-01T01:59:00;6.37;84.11
13713;DHT22;6928;50.546;7.120;2023-02-01T02:01:27;6.34;84.21
13713;DHT22;6928;50.546;7.120;2023-02-01T02:03:56;6.31;84.06
13713;DHT22;6928;50.546;7.120;2023-02-01T02:06:41;6.37;83.93
13713;DHT22;6928;50.546;7.120;2023-02-01T02:09:11;6.38;83.75
13713;DHT22;6928;50.546;7.120;2023-02-01T02:11:38;6.38;83.39
13713;DHT22;6928;50.546;7.120;2023-02-01T02:14:07;6.45;83.70
13713;DHT22;6928;50.546;7.120;2023-02-01T02:16:54;6.44;83.28
13713;DHT22;6928;50.546;7.120;2023-02-01T02:19:46;6.38;83.57
13713;DHT22;6928;50.546;7.120;2023-02-01T02:22:42;6.44;83.23
13713;DHT22;6928;50.546;7.120;2023-02-01T02:25:44;6.42;83.33
13713;DHT22;6928;50.546;7.120;2023-02-01T02:28:32;6.42;83.36
13713;DHT22;6928;50.546;7.120;2023-02-01T02:34:22;6.35;83.52
13713;DHT22;6928;50.546;7.120;2023-02-01T02:37:04;6.38;83.54
13713;DHT22;6928;50.546;7.120;2023-02-01T02:39:44;6.35;83.71
13713;DHT22;6928;50.546;7.120;2023-02-01T02:42:16;6.37;83.66
13713;DHT22;6928;50.546;7.120;2023-02-01T02:45:06;6.31;83.65
13713;DHT22;6928;50.546;7.120;2023-02-01T02:47:56;6.31;83.67
13713;DHT22;6928;50.546;7.120;2023-02-01T02:50:29;6.27;84.04
13713;DHT22;6928;50.546;7.120;2023-02-01T02:53:21;6.21;84.19
13713;DHT22;6928;50.546;7.120;2023-02-01T02:56:07;6.27;83.39
13713;DHT22;6928;50.546;7.120;2023-02-01T02:58:54;6.34;83.02
13713;DHT22;6928;50.546;7.120;2023-02-01T03:01:39;6.40;82.59
13713;DHT22;6928;50.546;7.120;2023-02-01T03:04:24;6.42;82.20
13713;DHT22;6928;50.546;7.120;2023-02-01T03:06:53;6.45;82.29
13713;DHT22;6928;50.546;7.120;2023-02-01T03:09:26;6.42;82.07
13713;DHT22;6928;50.546;7.120;2023-02-01T03:12:06;6.44;81.50
13713;DHT22;6928;50.546;7.120;2023-02-01T03:14:54;6.44;81.78
13713;DHT22;6928;50.546;7.120;2023-02-01T03:17:30;6.44;81.12
13713;DHT22;6928;50.546;7.120;2023-02-01T03:20:02;6.44;81.45
13713;DHT22;6928;50.546;7.120;2023-02-01T03:22:32;6.44;81.73
13713;DHT22;6928;50.546;7.120;2023-02-01T03:25:05;6.42;81.48
13713;DHT22;6928;50.546;7.120;2023-02-01T03:27:35;6.41;81.59
13713;DHT22;6928;50.546;7.120;2023-02-01T03:30:09;6.42;81.60
13713;DHT22;6928;50.546;7.120;2023-02-01T03:32:40;6.40;81.64
13713;DHT22;6928;50.546;7.120;2023-02-01T03:35:40;6.40;81.55
13713;DHT22;6928;50.546;7.120;2023-02-01T03:38:20;6.41;81.05
13713;DHT22;6928;50.546;7.120;2023-02-01T03:40:53;6.37;81.34
13713;DHT22;6928;50.546;7.120;2023-02-01T03:43:24;6.37;81.58
13713;DHT22;6928;50.546;7.120;2023-02-01T03:46:00;6.37;81.46
13713;DHT22;6928;50.546;7.120;2023-02-01T03:48:29;6.38;81.66
13713;DHT22;6928;50.546;7.120;2023-02-01T03:51:00;6.34;81.35
13713;DHT22;6928;50.546;7.120;2023-02-01T03:53:29;6.37;81.36
13713;DHT22;6928;50.546;7.120;2023-02-01T03:55:57;6.37;81.07
13713;DHT22;6928;50.546;7.120;2023-02-01T03:58:24;6.37;81.33
13713;DHT22;6928;50.546;7.120;2023-02-01T04:00:55;6.38;81.06
13713;DHT22;6928;50.546;7.120;2023-02-01T04:03:25;6.37;80.89
13713;DHT22;6928;50.546;7.120;2023-02-01T04:05:53;6.37;80.85
13713;DHT22;6928;50.546;7.120;2023-02-01T04:08:23;6.38;81.01
13713;DHT22;6928;50.546;7.120;2023-02-01T04:10:50;6.34;81.24
13713;DHT22;6928;50.546;7.120;2023-02-01T04:13:17;6.31;81.47
13713;DHT22;6928;50.546;7.120;2023-02-01T04:15:44;6.34;81.31
13713;DHT22;6928;50.546;7.120;2023-02-01T04:18:11;6.35;81.14
13713;DHT22;6928;50.546;7.120;2023-02-01T04:20:38;6.34;81.10
13713;DHT22;6928;50.546;7.120;2023-02-01T04:23:05;6.37;81.04
13713;DHT22;6928;50.546;7.120;2023-02-01T04:25:33;6.34;80.94
13713;DHT22;6928;50.546;7.120;2023-02-01T04:28:00;6.35;80.63
13713;DHT22;6928;50.546;7.120;2023-02-01T04:30:27;6.35;80.65
13713;DHT22;6928;50.546;7.120;2023-02-01T04:32:54;6.41;80.03
13713;DHT22;6928;50.546;7.120;2023-02-01T04:35:21;6.40;80.33
13713;DHT22;6928;50.546;7.120;2023-02-01T04:37:48;6.27;81.11
13713;DHT22;6928;50.546;7.120;2023-02-01T04:40:15;6.21;81.15
13713;DHT22;6928;50.546;7.120;2023-02-01T04:42:44;6.22;80.90
13713;DHT22;6928;50.546;7.120;2023-02-01T04:45:11;6.17;80.91
13713;DHT22;6928;50.546;7.120;2023-02-01T04:47:38;6.20;80.84
13713;DHT22;6928;50.546;7.120;2023-02-01T04:50:06;6.14;80.60
13713;DHT22;6928;50.546;7.120;2023-02-01T04:52:38;6.18;79.91
13713;DHT22;6928;50.546;7.120;2023-02-01T04:55:06;6.25;79.01
13713;DHT22;6928;50.546;7.120;2023-02-01T04:57:33;6.27;79.24
13713;DHT22;6928;50.546;7.120;2023-02-01T05:00:02;6.22;78.98
13713;DHT22;6928;50.546;7.120;2023-02-01T05:02:29;6.22;79.41
13713;DHT22;6928;50.546;7.120;2023-02-01T05:04:57;6.17;78.94
13713;DHT22;6928;50.546;7.120;2023-02-01T05:07:24;6.20;78.93
13713;DHT22;6928;50.546;7.120;2023-02-01T05:09:51;6.17;78.29
13713;DHT22;6928;50.546;7.120;2023-02-01T05:12:17;6.25;77.61
13713;DHT22;6928;50.546;7.120;2023-02-01T05:15:05;6.09;78.81
13713;DHT22;6928;50.546;7.120;2023-02-01T05:17:32;5.97;78.47
13713;DHT22;6928;50.546;7.120;2023-02-01T05:19:59;6.06;77.84
13713;DHT22;6928;50.546;7.120;2023-02-01T05:22:26;6.10;77.71
13713;DHT22;6928;50.546;7.120;2023-02-01T05:24:52;6.00;77.90
13713;DHT22;6928;50.546;7.120;2023-02-01T05:27:19;5.99;78.46
13713;DHT22;6928;50.546;7.120;2023-02-01T05:29:46;5.90;78.57
13713;DHT22;6928;50.546;7.120;2023-02-01T05:32:14;5.86;78.37
13713;DHT22;6928;50.546;7.120;2023-02-01T05:34:41;5.89;78.21
13713;DHT22;6928;50.546;7.120;2023-02-01T05:37:07;5.83;77.99
13713;DHT22;6928;50.546;7.120;2023-02-01T05:39:34;5.90;77.51
13713;DHT22;6928;50.546;7.120;2023-02-01T05:42:01;5.82;77.96
13713;DHT22;6928;50.546;7.120;2023-02-01T05:44:27;5.85;78.02
13713;DHT22;6928;50.546;7.120;2023-02-01T05:46:54;5.78;77.88
13713;DHT22;6928;50.546;7.120;2023-02-01T05:49:22;5.70;78.54
13713;DHT22;6928;50.546;7.120;2023-02-01T05:51:49;5.75;77.58
13713;DHT22;6928;50.546;7.120;2023-02-01T05:54:16;5.72;77.73
13713;DHT22;6928;50.546;7.120;2023-02-01T05:56:42;5.80;77.20
13713;DHT22;6928;50.546;7.120;2023-02-01T05:59:09;5.80;77.54
13713;DHT22;6928;50.546;7.120;2023-02-01T06:01:36;5.79;77.28
13713;DHT22;6928;50.546;7.120;2023-02-01T06:04:03;5.80;77.39
13713;DHT22;6928;50.546;7.120;2023-02-01T06:06:31;5.78;77.53
13713;DHT22;6928;50.546;7.120;2023-02-01T06:08:58;5.76;77.76
13713;DHT22;6928;50.546;7.120;2023-02-01T06:11:28;5.63;77.77
13713;DHT22;6928;50.546;7.120;2023-02-01T06:13:55;5.62;78.14
13713;DHT22;6928;50.546;7.120;2023-02-01T06:16:22;5.66;78.32
13713;DHT22;6928;50.546;7.120;2023-02-01T06:18:49;5.68;77.75
13713;DHT22;6928;50.546;7.120;2023-02-01T06:21:16;5.66;77.96
13713;DHT22;6928;50.546;7.120;2023-02-01T06:23:50;5.62;78.37
13713;DHT22;6928;50.546;7.120;2023-02-01T06:26:17;5.58;78.43
13713;DHT22;6928;50.546;7.120;2023-02-01T06:28:43;5.61;78.35
13713;DHT22;6928;50.546;7.120;2023-02-01T06:31:10;5.56;78.79
13713;DHT22;6928;50.546;7.120;2023-02-01T06:33:38;5.46;78.76
13713;DHT22;6928;50.546;7.120;2023-02-01T06:36:07;5.32;78.99
13713;DHT22;6928;50.546;7.120;2023-02-01T06:38:36;5.27;79.71
13713;DHT22;6928;50.546;7.120;2023-02-01T06:41:06;5.21;79.44
13713;DHT22;6928;50.546;7.120;2023-02-01T06:43:33;5.39;78.79
13713;DHT22;6928;50.546;7.120;2023-02-01T06:46:00;5.42;78.62
13713;DHT22;6928;50.546;7.120;2023-02-01T06:48:27;5.30;79.12
13713;DHT22;6928;50.546;7.120;2023-02-01T06:50:54;5.20;79.58
13713;DHT22;6928;50.546;7.120;2023-02-01T06:53:21;5.15;79.53
13713;DHT22;6928;50.546;7.120;2023-02-01T06:55:52;5.27;79.48
13713;DHT22;6928;50.546;7.120;2023-02-01T06:58:21;5.08;79.60
13713;DHT22;6928;50.546;7.120;2023-02-01T07:00:48;5.25;79.64
13713;DHT22;6928;50.546;7.120;2023-02-01T07:03:16;5.25;79.26
13713;DHT22;6928;50.546;7.120;2023-02-01T07:05:42;5.17;79.76
13713;DHT22;6928;50.546;7.120;2023-02-01T07:08:09;5.14;79.84
13713;DHT22;6928;50.546;7.120;2023-02-01T07:10:37;5.11;79.84
13713;DHT22;6928;50.546;7.120;2023-02-01T07:13:04;5.05;79.98
13713;DHT22;6928;50.546;7.120;2023-02-01T07:15:32;5.00;80.47
13713;DHT22;6928;50.546;7.120;2023-02-01T07:17:59;4.89;80.79
13713;DHT22;6928;50.546;7.120;2023-02-01T07:20:25;4.97;80.47
13713;DHT22;6928;50.546;7.120;2023-02-01T07:22:55;4.93;80.74
13713;DHT22;6928;50.546;7.120;2023-02-01T07:25:22;5.01;80.36
13713;DHT22;6928;50.546;7.120;2023-02-01T07:27:49;4.96;80.68
13713;DHT22;6928;50.546;7.120;2023-02-01T07:30:17;4.99;80.49
13713;DHT22;6928;50.546;7.120;2023-02-01T07:32:45;4.99;80.59
13713;DHT22;6928;50.546;7.120;2023-02-01T07:35:12;4.93;80.73
13713;DHT22;6928;50.546;7.120;2023-02-01T07:37:39;5.10;80.67
13713;DHT22;6928;50.546;7.120;2023-02-01T07:40:08;5.11;80.48
13713;DHT22;6928;50.546;7.120;2023-02-01T07:42:35;5.15;80.45
13713;DHT22;6928;50.546;7.120;2023-02-01T07:45:02;5.24;80.21
13713;DHT22;6928;50.546;7.120;2023-02-01T07:47:29;5.31;80.08
13713;DHT22;6928;50.546;7.120;2023-02-01T07:49:57;5.39;79.90
13713;DHT22;6928;50.546;7.120;2023-02-01T07:52:24;5.38;79.66
13713;DHT22;6928;50.546;7.120;2023-02-01T07:54:53;5.38;79.81
13713;DHT22;6928;50.546;7.120;2023-02-01T07:57:20;5.48;79.60
13713;DHT22;6928;50.546;7.120;2023-02-01T07:59:47;5.45;79.76
13713;DHT22;6928;50.546;7.120;2023-02-01T08:02:31;5.46;79.61
13713;DHT22;6928;50.546;7.120;2023-02-01T08:04:59;5.56;79.45
13713;DHT22;6928;50.546;7.120;2023-02-01T08:07:26;5.65;79.01
13713;DHT22;6928;50.546;7.120;2023-02-01T08:09:53;5.70;79.01
13713;DHT22;6928;50.546;7.120;2023-02-01T08:12:20;5.79;78.99
13713;DHT22;6928;50.546;7.120;2023-02-01T08:14:47;5.78;79.00
13713;DHT22;6928;50.546;7.120;2023-02-01T08:17:14;5.85;78.62
13713;DHT22;6928;50.546;7.120;2023-02-01T08:19:40;5.89;78.44
13713;DHT22;6928;50.546;7.120;2023-02-01T08:22:09;5.90;78.25
13713;DHT22;6928;50.546;7.120;2023-02-01T08:24:36;5.94;78.52
13713;DHT22;6928;50.546;7.120;2023-02-01T08:27:05;5.96;78.70
13713;DHT22;6928;50.546;7.120;2023-02-01T08:29:32;6.01;78.35
13713;DHT22;6928;50.546;7.120;2023-02-01T08:31:59;6.03;78.37
13713;DHT22;6928;50.546;7.120;2023-02-01T08:34:25;6.04;78.49
13713;DHT22;6928;50.546;7.120;2023-02-01T08:36:53;6.04;78.43
13713;DHT22;6928;50.546;7.120;2023-02-01T08:39:25;6.04;78.50
13713;DHT22;6928;50.546;7.120;2023-02-01T08:41:52;6.10;78.33
13713;DHT22;6928;50.546;7.120;2023-02-01T08:44:33;6.11;78.31
13713;DHT22;6928;50.546;7.120;2023-02-01T08:47:00;6.16;77.68
13713;DHT22;6928;50.546;7.120;2023-02-01T08:49:27;6.06;79.08
13713;DHT22;6928;50.546;7.120;2023-02-01T08:51:54;6.13;78.50
13713;DHT22;6928;50.546;7.120;2023-02-01T08:54:22;6.21;78.02
13713;DHT22;6928;50.546;7.120;2023-02-01T08:56:50;6.27;77.79
13713;DHT22;6928;50.546;7.120;2023-02-01T08:59:19;6.34;77.38
13713;DHT22;6928;50.546;7.120;2023-02-01T09:01:46;6.34;77.36
13713;DHT22;6928;50.546;7.120;2023-02-01T09:04:13;6.37;77.84
13713;DHT22;6928;50.546;7.120;2023-02-01T09:06:40;6.38;77.43
13713;DHT22;6928;50.546;7.120;2023-02-01T09:09:07;6.44;77.67
13713;DHT22;6928;50.546;7.120;2023-02-01T09:11:34;6.46;78.30
13713;DHT22;6928;50.546;7.120;2023-02-01T09:14:03;6.48;77.99
13713;DHT22;6928;50.546;7.120;2023-02-01T09:16:29;6.52;77.40
13713;DHT22;6928;50.546;7.120;2023-02-01T09:18:56;6.56;77.44
13713;DHT22;6928;50.546;7.120;2023-02-01T09:21:23;6.59;77.12
13713;DHT22;6928;50.546;7.120;2023-02-01T09:23:50;6.68;76.56
13713;DHT22;6928;50.546;7.120;2023-02-01T09:26:17;6.64;76.62
13713;DHT22;6928;50.546;7.120;2023-02-01T09:28:44;6.71;76.49
13713;DHT22;6928;50.546;7.120;2023-02-01T09:31:13;6.67;76.68
13713;DHT22;6928;50.546;7.120;2023-02-01T09:33:39;6.69;76.47
13713;DHT22;6928;50.546;7.120;2023-02-01T09:36:07;6.68;76.83
13713;DHT22;6928;50.546;7.120;2023-02-01T09:38:34;6.72;76.38
13713;DHT22;6928;50.546;7.120;2023-02-01T09:41:06;6.75;76.49
13713;DHT22;6928;50.546;7.120;2023-02-01T09:43:40;6.80;76.06
13713;DHT22;6928;50.546;7.120;2023-02-01T09:46:22;6.82;75.93
13713;DHT22;6928;50.546;7.120;2023-02-01T09:48:54;6.82;76.11
13713;DHT22;6928;50.546;7.120;2023-02-01T09:51:25;6.88;75.78
13713;DHT22;6928;50.546;7.120;2023-02-01T09:54:01;6.89;75.90
13713;DHT22;6928;50.546;7.120;2023-02-01T09:56:36;6.89;76.15
13713;DHT22;6928;50.546;7.120;2023-02-01T09:59:16;6.93;76.00
13713;DHT22;6928;50.546;7.120;2023-02-01T10:01:47;6.97;75.63
13713;DHT22;6928;50.546;7.120;2023-02-01T10:04:16;6.93;75.95
13713;DHT22;6928;50.546;7.120;2023-02-01T10:07:02;6.99;75.71
13713;DHT22;6928;50.546;7.120;2023-02-01T10:09:47;7.06;75.77
13713;DHT22;6928;50.546;7.120;2023-02-01T10:12:41;7.06;75.22
13713;DHT22;6928;50.546;7.120;2023-02-01T10:15:22;7.13;75.25
13713;DHT22;6928;50.546;7.120;2023-02-01T10:18:33;7.13;74.19
13713;DHT22;6928;50.546;7.120;2023-02-01T10:21:08;7.21;74.84
13713;DHT22;6928;50.546;7.120;2023-02-01T10:23:56;7.16;74.99
13713;DHT22;6928;50.546;7.120;2023-02-01T10:26:33;7.14;74.64
13713;DHT22;6928;50.546;7.120;2023-02-01T10:29:04;7.11;74.98
13713;DHT22;6928;50.546;7.120;2023-02-01T10:31:36;7.09;74.98
13713;DHT22;6928;50.546;7.120;2023-02-01T10:34:15;7.11;75.15
13713;DHT22;6928;50.546;7.120;2023-02-01T10:36:54;7.17;75.24
13713;DHT22;6928;50.546;7.120;2023-02-01T10:39:22;7.19;75.19
13713;DHT22;6928;50.546;7.120;2023-02-01T10:41:50;7.17;75.20
13713;DHT22;6928;50.546;7.120;2023-02-01T10:44:21;7.16;75.33
13713;DHT22;6928;50.546;7.120;2023-02-01T10:46:49;7.11;74.87
13713;DHT22;6928;50.546;7.120;2023-02-01T10:49:22;7.13;75.16
13713;DHT22;6928;50.546;7.120;2023-02-01T10:51:55;7.10;75.39
13713;DHT22;6928;50.546;7.120;2023-02-01T10:54:33;7.03;75.30
13713;DHT22;6928;50.546;7.120;2023-02-01T10:57:00;7.00;75.54
13713;DHT22;6928;50.546;7.120;2023-02-01T10:59:29;7.00;75.10
13713;DHT22;6928;50.546;7.120;2023-02-01T11:02:00;7.17;74.77
13713;DHT22;6928;50.546;7.120;2023-02-01T11:04:33;7.52;74.42
13713;DHT22;6928;50.546;7.120;2023-02-01T11:07:07;7.71;73.15
13713;DHT22;6928;50.546;7.120;2023-02-01T11:09:39;7.95;72.77
13713;DHT22;6928;50.546;7.120;2023-02-01T11:12:25;8.16;72.21
13713;DHT22;6928;50.546;7.120;2023-02-01T11:14:58;7.95;72.73
13713;DHT22;6928;50.546;7.120;2023-02-01T11:17:33;7.78;72.95
13713;DHT22;6928;50.546;7.120;2023-02-01T11:20:06;7.69;72.70
13713;DHT22;6928;50.546;7.120;2023-02-01T11:22:33;7.78;72.63
13713;DHT22;6928;50.546;7.120;2023-02-01T11:25:01;7.78;72.57
13713;DHT22;6928;50.546;7.120;2023-02-01T11:27:34;7.68;72.85
13713;DHT22;6928;50.546;7.120;2023-02-01T11:30:02;7.72;72.65
13713;DHT22;6928;50.546;7.120;2023-02-01T11:32:30;7.65;73.11
13713;DHT22;6928;50.546;7.120;2023-02-01T11:35:02;7.68;72.63
13713;DHT22;6928;50.546;7.120;2023-02-01T11:37:33;7.77;72.77
13713;DHT22;6928;50.546;7.120;2023-02-01T11:40:23;7.75;72.85
13713;DHT22;6928;50.546;7.120;2023-02-01T11:42:56;7.79;72.51
13713;DHT22;6928;50.546;7.120;2023-02-01T11:45:27;7.88;72.26
13713;DHT22;6928;50.546;7.120;2023-02-01T11:47:55;7.89;71.98
13713;DHT22;6928;50.546;7.120;2023-02-01T11:50:33;7.95;71.70
13713;DHT22;6928;50.546;7.120;2023-02-01T11:53:20;7.93;71.43
13713;DHT22;6928;50.546;7.120;2023-02-01T11:55:59;8.00;71.33
13713;DHT22;6928;50.546;7.120;2023-02-01T11:58:56;8.05;71.26
13713;DHT22;6928;50.546;7.120;2023-02-01T12:02:11;8.07;70.86
13713;DHT22;6928;50.546;7.120;2023-02-01T12:04:55;8.13;71.56
13713;DHT22;6928;50.546;7.120;2023-02-01T12:07:44;8.06;71.02
13713;DHT22;6928;50.546;7.120;2023-02-01T12:10:26;8.05;70.61
13713;DHT22;6928;50.546;7.120;2023-02-01T12:13:06;8.19;70.60
13713;DHT22;6928;50.546;7.120;2023-02-01T12:15:46;8.09;70.37
13713;DHT22;6928;50.546;7.120;2023-02-01T12:18:41;8.07;70.19
13713;DHT22;6928;50.546;7.120;2023-02-01T12:21:26;8.07;70.73
13713;DHT22;6928;50.546;7.120;2023-02-01T12:24:18;8.12;70.71
13713;DHT22;6928;50.546;7.120;2023-02-01T12:27:00;8.10;70.40
13713;DHT22;6928;50.546;7.120;2023-02-01T12:29:48;8.21;70.55
13713;DHT22;6928;50.546;7.120;2023-02-01T12:32:41;8.26;70.01
13713;DHT22;6928;50.546;7.120;2023-02-01T12:35:25;8.41;69.95
13713;DHT22;6928;50.546;7.120;2023-02-01T12:38:08;8.52;70.26
13713;DHT22;6928;50.546;7.120;2023-02-01T12:40:50;8.71;69.09
13713;DHT22;6928;50.546;7.120;2023-02-01T12:43:25;8.85;68.58
13713;DHT22;6928;50.546;7.120;2023-02-01T12:45:58;8.84;69.79
13713;DHT22;6928;50.546;7.120;2023-02-01T12:48:31;8.71;68.47
13713;DHT22;6928;50.546;7.120;2023-02-01T12:51:04;8.68;69.45
13713;DHT22;6928;50.546;7.120;2023-02-01T12:53:44;8.57;68.65
13713;DHT22;6928;50.546;7.120;2023-02-01T12:56:21;8.50;68.85
13713;DHT22;6928;50.546;7.120;2023-02-01T12:58:50;8.52;68.92
13713;DHT22;6928;50.546;7.120;2023-02-01T13:01:27;8.48;69.32
13713;DHT22;6928;50.546;7.120;2023-02-01T13:04:02;8.41;69.60
13713;DHT22;6928;50.546;7.120;2023-02-01T13:06:35;8.31;69.26
13713;DHT22;6928;50.546;7.120;2023-02-01T13:09:09;8.34;69.29
13713;DHT22;6928;50.546;7.120;2023-02-01T13:11:43;8.37;69.93
13713;DHT22;6928;50.546;7.120;2023-02-01T13:14:22;8.36;69.25
13713;DHT22;6928;50.546;7.120;2023-02-01T13:16:53;8.34;69.50
13713;DHT22;6928;50.546;7.120;2023-02-01T13:19:26;8.38;69.45
13713;DHT22;6928;50.546;7.120;2023-02-01T13:21:58;8.33;69.02
13713;DHT22;6928;50.546;7.120;2023-02-01T13:24:33;8.34;69.58
13713;DHT22;6928;50.546;7.120;2023-02-01T13:27:04;8.29;69.64
13713;DHT22;6928;50.546;7.120;2023-02-01T13:29:33;8.27;69.73
13713;DHT22;6928;50.546;7.120;2023-02-01T13:32:34;8.24;69.62
13713;DHT22;6928;50.546;7.120;2023-02-01T13:39:02;8.34;69.15
13713;DHT22;6928;50.546;7.120;2023-02-01T13:41:41;8.37;69.02
13713;DHT22;6928;50.546;7.120;2023-02-01T13:44:17;8.33;69.03
13713;DHT22;6928;50.546;7.120;2023-02-01T13:46:46;8.34;68.62
13713;DHT22;6928;50.546;7.120;2023-02-01T13:49:20;8.37;68.63
13713;DHT22;6928;50.546;7.120;2023-02-01T13:51:52;8.40;67.96
13713;DHT22;6928;50.546;7.120;2023-02-01T13:54:30;8.40;67.89
13713;DHT22;6928;50.546;7.120;2023-02-01T13:56:58;8.37;67.64
13713;DHT22;6928;50.546;7.120;2023-02-01T13:59:51;8.37;67.77
13713;DHT22;6928;50.546;7.120;2023-02-01T14:06:00;8.40;67.72
13713;DHT22;6928;50.546;7.120;2023-02-01T14:08:46;8.36;67.92
13713;DHT22;6928;50.546;7.120;2023-02-01T14:11:46;8.38;67.89
13713;DHT22;6928;50.546;7.120;2023-02-01T14:14:49;8.40;68.21
13713;DHT22;6928;50.546;7.120;2023-02-01T14:17:34;8.36;68.32
13713;DHT22;6928;50.546;7.120;2023-02-01T14:20:44;8.33;69.15
13713;DHT22;6928;50.546;7.120;2023-02-01T14:23:28;8.34;68.85
13713;DHT22;6928;50.546;7.120;2023-02-01T14:26:18;8.36;68.76
13713;DHT22;6928;50.546;7.120;2023-02-01T14:29:02;8.36;68.67
13713;DHT22;6928;50.546;7.120;2023-02-01T14:31:47;8.36;69.09
13713;DHT22;6928;50.546;7.120;2023-02-01T14:34:20;8.31;69.42
13713;DHT22;6928;50.546;7.120;2023-02-01T14:36:53;8.34;69.08
13713;DHT22;6928;50.546;7.120;2023-02-01T14:39:33;8.34;69.14
13713;DHT22;6928;50.546;7.120;2023-02-01T14:42:05;8.33;69.28
13713;DHT22;6928;50.546;7.120;2023-02-01T14:44:40;8.33;69.48
13713;DHT22;6928;50.546;7.120;2023-02-01T14:47:33;8.30;69.72
13713;DHT22;6928;50.546;7.120;2023-02-01T14:50:27;8.33;69.75
13713;DHT22;6928;50.546;7.120;2023-02-01T14:53:22;8.30;70.02
13713;DHT22;6928;50.546;7.120;2023-02-01T14:55:53;8.31;69.80
13713;DHT22;6928;50.546;7.120;2023-02-01T14:58:35;8.33;69.80
13713;DHT22;6928;50.546;7.120;2023-02-01T15:01:05;8.31;70.02
13713;DHT22;6928;50.546;7.120;2023-02-01T15:03:46;8.30;70.30
13713;DHT22;6928;50.546;7.120;2023-02-01T15:06:29;8.33;70.09
13713;DHT22;6928;50.546;7.120;2023-02-01T15:08:59;8.31;70.32
13713;DHT22;6928;50.546;7.120;2023-02-01T15:11:27;8.33;70.18
13713;DHT22;6928;50.546;7.120;2023-02-01T15:13:54;8.30;70.34
13713;DHT22;6928;50.546;7.120;2023-02-01T15:16:24;8.27;70.75
13713;DHT22;6928;50.546;7.120;2023-02-01T15:21:49;8.27;70.85
13713;DHT22;6928;50.546;7.120;2023-02-01T15:24:22;8.27;70.92
13713;DHT22;6928;50.546;7.120;2023-02-01T15:26:50;8.30;71.02
13713;DHT22;6928;50.546;7.120;2023-02-01T15:29:18;8.31;71.00
13713;DHT22;6928;50.546;7.120;2023-02-01T15:31:47;8.29;71.10
13713;DHT22;6928;50.546;7.120;2023-02-01T15:34:15;8.30;70.97
13713;DHT22;6928;50.546;7.120;2023-02-01T15:36:43;8.29;70.99
13713;DHT22;6928;50.546;7.120;2023-02-01T15:39:19;8.30;70.67
13713;DHT22;6928;50.546;7.120;2023-02-01T15:41:50;8.67;71.12
13713;DHT22;6928;50.546;7.120;2023-02-01T15:44:27;8.27;71.07
13713;DHT22;6928;50.546;7.120;2023-02-01T15:46:54;8.26;71.01
13713;DHT22;6928;50.546;7.120;2023-02-01T15:49:26;8.30;71.11
13713;DHT22;6928;50.546;7.120;2023-02-01T15:51:54;8.31;70.85
13713;DHT22;6928;50.546;7.120;2023-02-01T15:54:27;8.29;71.29
13713;DHT22;6928;50.546;7.120;2023-02-01T15:56:58;8.29;71.01
13713;DHT22;6928;50.546;7.120;2023-02-01T15:59:31;8.30;71.00
13713;DHT22;6928;50.546;7.120;2023-02-01T16:01:59;8.31;70.87
13713;DHT22;6928;50.546;7.120;2023-02-01T16:04:28;8.30;71.17
13713;DHT22;6928;50.546;7.120;2023-02-01T16:06:58;8.29;71.01
13713;DHT22;6928;50.546;7.120;2023-02-01T16:09:39;8.29;71.29
13713;DHT22;6928;50.546;7.120;2023-02-01T16:12:28;8.26;71.59
13713;DHT22;6928;50.546;7.120;2023-02-01T16:14:55;8.20;72.01
13713;DHT22;6928;50.546;7.120;2023-02-01T16:17:22;8.23;72.04
13713;DHT22;6928;50.546;7.120;2023-02-01T16:19:48;8.21;72.63
13713;DHT22;6928;50.546;7.120;2023-02-01T16:22:16;8.16;73.02
13713;DHT22;6928;50.546;7.120;2023-02-01T16:24:44;8.13;74.30
13713;DHT22;6928;50.546;7.120;2023-02-01T16:27:11;8.06;74.89
13713;DHT22;6928;50.546;7.120;2023-02-01T16:29:37;8.02;75.41
13713;DHT22;6928;50.546;7.120;2023-02-01T16:32:05;7.92;76.78
13713;DHT22;6928;50.546;7.120;2023-02-01T16:34:31;7.88;77.68
13713;DHT22;6928;50.546;7.120;2023-02-01T16:37:00;7.78;78.50
13713;DHT22;6928;50.546;7.120;2023-02-01T16:39:27;7.71;79.41
13713;DHT22;6928;50.546;7.120;2023-02-01T16:41:56;7.61;80.65
13713;DHT22;6928;50.546;7.120;2023-02-01T16:44:23;7.52;80.99
13713;DHT22;6928;50.546;7.120;2023-02-01T16:46:50;7.42;81.73
13713;DHT22;6928;50.546;7.120;2023-02-01T16:49:20;7.44;82.64
13713;DHT22;6928;50.546;7.120;2023-02-01T16:51:49;7.31;83.08